CheckWX is a tool to help pilots better visualize weather data.  It is not intended as a substitute for an official pre-flight weather briefing.

20:16:19 UTC

CYYU TAF
Kapuskasing Airport
Kapuskasing, Canada
TAF CYYU 251938Z 2520/2608 32012KT P6SM BKN050 BKN080 FM260000 24005KT P6SM FEW050 FEW080 FM260300 VRB03KT P6SM OVC015 FM260600 VRB03KT P6SM OVC008 PROB30 2606/2608 6SM -FZDZ BR OVC005 RMK NXT FCST BY 260200Z

Apr-25@
20:00 UTC

Apr-25 @ 20:00 UTC

Apr-26@
00:00 UTC

Apr-26 @ 00:00 UTC

TAF CYYU 251938Z 2520/2608 32012KT P6SM BKN050 BKN080
Wind
  • 320° at 12 KTS
Cloud Levels
  • Broken at 5,000' AGL
  • Broken at 8,000' AGL

Apr-26@
00:00 UTC

Apr-26 @ 00:00 UTC

Apr-26@
03:00 UTC

Apr-26 @ 03:00 UTC

FM260000 24005KT P6SM FEW050 FEW080

From

From Standard forecast or significant change

Wind
  • 240° at 5 KTS
Cloud Levels
  • Few at 5,000' AGL
  • Few at 8,000' AGL

Apr-26@
03:00 UTC

Apr-26 @ 03:00 UTC

Apr-26@
06:00 UTC

Apr-26 @ 06:00 UTC

FM260300 VRB03KT P6SM OVC015

From

From Standard forecast or significant change

Wind
  • Variable at 3 KTS
Cloud Levels
  • Overcast at 1,500' AGL

Apr-26@
06:00 UTC

Apr-26 @ 06:00 UTC

Apr-26@
08:00 UTC

Apr-26 @ 08:00 UTC

FM260600 VRB03KT P6SM OVC008

From

From Standard forecast or significant change

Wind
  • Variable at 3 KTS
Cloud Levels
  • Overcast at 800' AGL

Apr-26@
06:00 UTC

Apr-26 @ 06:00 UTC

Apr-26@
08:00 UTC

Apr-26 @ 08:00 UTC

PROB30 2606/2608 6SM -FZDZ BR OVC005 RMK NXT FCST BY 260200Z

Probable - 30% Likelihood

Probable - 30% Likelihood during this time.

Conditions
Light Freezing Light Drizzle, Mist
Cloud Levels
  • Overcast at 500' AGL